createdAt,value
2019-03-28T00:34:23.148Z,37.80
2019-03-28T00:37:03.949Z,27.90
2019-03-28T00:39:44.893Z,29.90
2019-03-28T02:53:19.391Z,45.30
2019-03-28T03:11:16.638Z,40.10
2019-03-28T04:20:56.525Z,19.80
2019-03-28T04:23:37.139Z,21.70
2019-03-28T04:50:52.073Z,23.90
2019-03-28T05:05:45.847Z,23.10
2019-03-28T05:08:26.383Z,22.15
2019-03-28T05:11:07.351Z,22.40
2019-03-28T05:22:58.038Z,22.00
2019-03-28T06:06:07.825Z,30.90
2019-03-28T07:34:24.735Z,32.40
2019-03-28T08:01:45.656Z,23.30
2019-03-28T08:04:26.965Z,27.60
2019-03-28T09:11:34.912Z,24.20
2019-03-28T12:11:26.543Z,31.13
2019-03-28T12:14:08.450Z,28.20
2019-03-28T12:16:49.911Z,26.30
2019-03-28T12:19:36.896Z,27.13
2019-03-28T12:22:18.983Z,34.80
2019-03-28T12:24:59.984Z,33.00
2019-03-28T12:27:41.699Z,27.00
2019-03-28T12:33:08.281Z,29.30
2019-03-28T12:48:07.886Z,38.90
2019-03-28T13:15:15.473Z,25.40
2019-03-28T13:21:13.817Z,27.10
2019-03-28T20:57:06.740Z,52.50
2019-03-28T20:59:47.396Z,55.37
2019-03-28T21:02:29.558Z,66.90
2019-03-28T21:05:10.808Z,73.00
2019-03-28T21:07:51.573Z,69.03
2019-03-28T21:10:33.501Z,58.20
2019-03-28T21:13:14.679Z,51.00
2019-03-28T21:15:55.438Z,64.53
2019-03-28T21:18:36.700Z,56.50
2019-03-28T21:21:17.621Z,55.13
2019-03-28T21:23:58.515Z,52.10
2019-03-28T21:26:40.959Z,48.00
2019-03-28T21:29:22.267Z,52.47
2019-03-28T21:32:02.881Z,64.97
2019-03-28T21:34:45.360Z,56.93
2019-03-28T21:37:26.238Z,70.10
2019-03-28T21:40:07.023Z,66.20
2019-03-28T21:42:47.724Z,78.53
2019-03-28T21:45:29.059Z,65.03
2019-03-28T21:48:11.606Z,50.77
2019-03-28T21:50:53.216Z,114.80
2019-03-28T21:56:20.645Z,81.80
2019-03-28T21:59:02.025Z,74.70
2019-03-28T22:01:42.865Z,75.00
2019-03-28T22:04:23.713Z,88.50
2019-03-28T22:07:04.444Z,83.33
2019-03-28T22:09:45.391Z,108.43
2019-03-28T22:12:25.931Z,66.67
2019-03-28T22:15:06.598Z,75.53
2019-03-28T22:17:47.288Z,84.00
2019-03-28T22:20:28.035Z,70.60
2019-03-28T22:23:09.229Z,99.20
2019-03-28T22:25:50.147Z,55.73
2019-03-28T22:28:31.269Z,45.47
2019-03-28T22:31:12.199Z,47.87
2019-03-28T22:33:53.022Z,67.47
2019-03-28T22:36:37.340Z,70.63
2019-03-28T22:39:18.096Z,67.30
2019-03-28T22:42:00.950Z,76.67
2019-03-28T22:44:42.248Z,79.10
2019-03-28T22:47:23.374Z,66.00
2019-03-28T22:50:04.400Z,114.30
2019-03-28T22:52:45.633Z,60.50
2019-03-28T22:55:26.301Z,56.70
2019-03-28T22:58:08.112Z,82.20
2019-03-28T23:00:49.189Z,57.03
2019-03-28T23:03:30.428Z,55.27
2019-03-28T23:06:11.873Z,77.73
2019-03-28T23:11:31.788Z,75.13
2019-03-28T23:14:12.774Z,60.80
2019-03-28T23:16:53.487Z,66.10
2019-03-28T23:19:35.581Z,114.53
2019-03-28T23:22:16.022Z,75.57
2019-03-28T23:24:56.761Z,69.43
2019-03-28T23:27:38.646Z,48.53
2019-03-28T23:30:19.702Z,59.03
2019-03-28T23:33:01.278Z,91.23
2019-03-28T23:35:42.308Z,98.63
2019-03-28T23:38:22.987Z,90.20
2019-03-28T23:41:03.670Z,84.50
2019-03-28T23:43:44.902Z,120.87
2019-03-28T23:46:27.101Z,111.93
2019-03-28T23:51:52.434Z,98.70
2019-03-28T23:54:35.627Z,104.63
2019-03-28T23:57:16.900Z,76.30
2019-03-28T23:59:59.435Z,110.10
